createdAt,value
2022-09-02T00:01:33.182Z,99.90
2022-09-02T00:04:05.612Z,99.90
2022-09-02T00:06:34.925Z,99.90
2022-09-02T00:09:05.655Z,99.90
2022-09-02T00:11:35.924Z,99.90
2022-09-02T00:14:08.847Z,99.90
2022-09-02T00:16:39.242Z,99.90
2022-09-02T00:19:07.905Z,99.90
2022-09-02T00:21:37.454Z,99.90
2022-09-02T00:24:08.733Z,99.90
2022-09-02T00:26:37.374Z,99.90
2022-09-02T00:29:06.635Z,99.90
2022-09-02T00:31:36.750Z,99.90
2022-09-02T00:34:07.764Z,99.90
2022-09-02T00:36:36.604Z,99.90
2022-09-02T00:39:07.663Z,99.90
2022-09-02T00:41:37.284Z,99.90
2022-09-02T00:44:09.314Z,99.90
2022-09-02T00:46:38.135Z,99.90
2022-09-02T00:49:14.303Z,99.90
2022-09-02T00:51:47.194Z,99.90
2022-09-02T00:54:17.815Z,99.90
2022-09-02T00:56:49.324Z,99.90
2022-09-02T00:59:28.644Z,99.90
2022-09-02T01:01:58.574Z,99.90
2022-09-02T01:04:29.492Z,99.90
2022-09-02T01:06:58.295Z,99.90
2022-09-02T01:09:27.012Z,99.90
2022-09-02T01:11:55.672Z,99.90
2022-09-02T01:14:28.566Z,99.90
2022-09-02T01:17:00.074Z,99.90
2022-09-02T01:19:34.832Z,99.90
2022-09-02T01:22:17.251Z,99.90
2022-09-02T01:24:45.895Z,99.90
2022-09-02T01:27:17.642Z,99.90
2022-09-02T01:29:47.132Z,99.90
2022-09-02T01:32:15.926Z,99.90
2022-09-02T01:34:44.892Z,99.90
2022-09-02T01:37:15.432Z,99.90
2022-09-02T01:39:44.641Z,99.90
2022-09-02T01:42:14.111Z,99.90
2022-09-02T01:44:45.241Z,99.90
2022-09-02T01:47:14.552Z,99.90
2022-09-02T01:49:43.643Z,99.90
2022-09-02T01:52:12.571Z,99.90
2022-09-02T01:54:42.702Z,99.90
2022-09-02T01:57:11.382Z,99.90
2022-09-02T01:59:40.322Z,99.90
2022-09-02T02:02:09.670Z,99.90
2022-09-02T02:04:38.601Z,99.90
2022-09-02T02:07:07.612Z,99.90
2022-09-02T02:09:36.242Z,99.90
2022-09-02T02:12:08.222Z,99.90
2022-09-02T02:14:37.879Z,99.90
2022-09-02T02:17:06.822Z,99.90
2022-09-02T02:19:35.681Z,99.90
2022-09-02T02:22:05.621Z,99.90
2022-09-02T02:24:34.922Z,99.90
2022-09-02T02:27:04.051Z,99.90
2022-09-02T02:29:34.202Z,99.90
2022-09-02T02:32:02.850Z,99.90
2022-09-02T02:34:31.559Z,99.90
2022-09-02T02:37:00.154Z,99.90
2022-09-02T02:39:29.238Z,99.90
2022-09-02T02:41:58.161Z,99.90
2022-09-02T02:44:27.972Z,99.90
2022-09-02T02:46:58.717Z,99.90
2022-09-02T02:49:27.896Z,99.90
2022-09-02T02:51:56.522Z,99.90
2022-09-02T02:54:27.506Z,99.90
2022-09-02T02:57:05.389Z,99.90
2022-09-02T02:59:34.126Z,99.90
2022-09-02T03:02:53.289Z,99.90
2022-09-02T03:05:23.387Z,99.90
2022-09-02T03:07:51.981Z,99.90
2022-09-02T03:10:20.877Z,99.90
2022-09-02T03:12:49.754Z,99.90
2022-09-02T03:15:20.318Z,99.90
2022-09-02T03:17:49.677Z,99.90
2022-09-02T03:20:19.371Z,99.90
2022-09-02T03:22:51.887Z,99.90
2022-09-02T03:25:22.496Z,99.90
2022-09-02T03:27:51.512Z,99.90
2022-09-02T03:30:22.857Z,99.90
2022-09-02T03:32:51.597Z,99.90
2022-09-02T03:35:22.417Z,99.90
2022-09-02T03:37:53.682Z,99.90
2022-09-02T03:40:27.823Z,99.90
2022-09-02T03:43:00.219Z,99.90
2022-09-02T03:45:29.814Z,99.90
2022-09-02T03:47:59.387Z,99.90
2022-09-02T03:50:30.277Z,99.90
2022-09-02T03:53:01.308Z,99.90
2022-09-02T03:55:30.407Z,99.90
2022-09-02T03:57:59.516Z,99.90
2022-09-02T04:00:32.017Z,99.90
2022-09-02T04:03:01.991Z,99.90
2022-09-02T04:05:30.717Z,99.90
2022-09-02T04:08:00.881Z,99.90
2022-09-02T04:10:29.548Z,99.90
2022-09-02T04:12:58.208Z,99.90
2022-09-02T04:15:26.862Z,99.90
2022-09-02T04:17:57.097Z,99.90
2022-09-02T04:20:25.888Z,99.90
2022-09-02T04:22:54.517Z,99.90
2022-09-02T04:25:27.776Z,99.90
2022-09-02T04:27:56.538Z,99.90
2022-09-02T04:30:25.608Z,99.90
2022-09-02T04:32:56.907Z,99.90
2022-09-02T04:35:25.458Z,99.90
2022-09-02T04:37:54.216Z,99.90
2022-09-02T04:40:25.033Z,99.90
2022-09-02T04:42:55.374Z,99.90
2022-09-02T04:45:29.112Z,99.90
2022-09-02T04:47:58.416Z,99.90
2022-09-02T04:50:27.026Z,99.90
2022-09-02T04:52:55.868Z,99.90
2022-09-02T04:55:26.098Z,99.90
2022-09-02T04:57:54.676Z,99.90
2022-09-02T05:00:23.576Z,99.90
2022-09-02T05:02:52.556Z,99.90
2022-09-02T05:05:21.336Z,99.90
2022-09-02T05:07:49.987Z,99.90
2022-09-02T05:10:19.087Z,99.90
2022-09-02T05:12:49.146Z,99.90
2022-09-02T05:15:17.827Z,99.90
2022-09-02T05:17:47.118Z,99.90
2022-09-02T05:20:15.867Z,99.90
2022-09-02T05:22:44.659Z,99.90
2022-09-02T05:25:13.247Z,99.90
2022-09-02T05:27:41.858Z,99.90
2022-09-02T05:30:13.237Z,99.90
2022-09-02T05:32:42.469Z,99.90
2022-09-02T05:35:11.277Z,99.90
2022-09-02T05:37:40.047Z,99.90
2022-09-02T05:40:15.012Z,99.90
2022-09-02T05:42:44.387Z,99.90
2022-09-02T05:45:16.421Z,99.90
2022-09-02T05:47:45.657Z,99.90
2022-09-02T05:50:15.257Z,99.90
2022-09-02T05:52:44.704Z,99.90
2022-09-02T05:55:13.477Z,99.90
2022-09-02T05:57:43.465Z,99.90
2022-09-02T06:00:17.314Z,99.90
2022-09-02T06:02:46.961Z,99.90
2022-09-02T06:05:15.734Z,99.90
2022-09-02T06:07:44.367Z,99.90
2022-09-02T06:10:13.239Z,99.90
2022-09-02T06:12:42.922Z,99.90
2022-09-02T06:15:12.563Z,99.90
2022-09-02T06:17:42.707Z,99.90
2022-09-02T06:20:12.171Z,99.90
2022-09-02T06:22:40.816Z,99.90
2022-09-02T06:25:09.907Z,99.90
2022-09-02T06:27:40.138Z,99.90
2022-09-02T06:30:10.711Z,99.90
2022-09-02T06:32:39.377Z,99.90
2022-09-02T06:35:10.987Z,99.90
2022-09-02T06:37:42.387Z,99.90
2022-09-02T06:40:12.794Z,99.90
2022-09-02T06:42:42.055Z,99.90
2022-09-02T06:45:11.536Z,99.90
2022-09-02T06:47:40.082Z,99.90
2022-09-02T06:50:11.667Z,99.90
2022-09-02T06:52:40.957Z,99.90
2022-09-02T06:55:10.819Z,99.90
2022-09-02T06:57:39.782Z,99.90
2022-09-02T07:00:11.422Z,99.90
2022-09-02T07:02:40.351Z,99.90
2022-09-02T07:05:10.492Z,99.90
2022-09-02T07:07:40.622Z,99.90
2022-09-02T07:10:12.000Z,99.90
2022-09-02T07:12:44.355Z,99.90
2022-09-02T07:15:13.570Z,99.90
2022-09-02T07:17:42.089Z,99.90
2022-09-02T07:20:12.748Z,99.90
2022-09-02T07:22:41.472Z,99.90
2022-09-02T07:25:11.356Z,99.90
2022-09-02T07:27:40.101Z,99.90
2022-09-02T07:30:10.868Z,99.90
2022-09-02T07:32:39.881Z,99.90
2022-09-02T07:35:09.399Z,99.90
2022-09-02T07:37:39.420Z,99.90
2022-09-02T07:40:11.371Z,99.90
2022-09-02T07:42:40.102Z,99.90
2022-09-02T07:45:09.663Z,99.90
2022-09-02T07:47:38.222Z,99.90
2022-09-02T07:50:18.866Z,99.90
2022-09-02T07:52:50.741Z,99.90
2022-09-02T07:55:19.474Z,99.90
2022-09-02T07:57:49.153Z,99.90
2022-09-02T08:00:19.866Z,99.90
2022-09-02T08:02:49.350Z,99.90
2022-09-02T08:05:18.136Z,99.90
2022-09-02T08:07:46.749Z,99.90
2022-09-02T08:10:17.551Z,99.90
2022-09-02T08:12:46.906Z,99.90
2022-09-02T08:15:17.260Z,99.60
2022-09-02T08:17:45.983Z,99.90
2022-09-02T08:20:16.895Z,96.30
2022-09-02T08:22:50.779Z,83.60
2022-09-02T08:25:29.414Z,90.30
2022-09-02T08:27:58.009Z,77.30
2022-09-02T08:30:26.706Z,73.20
2022-09-02T08:32:55.570Z,67.60
2022-09-02T08:35:24.206Z,54.60
2022-09-02T08:37:56.220Z,52.10
2022-09-02T08:40:37.767Z,47.70
2022-09-02T08:43:24.947Z,46.00
2022-09-02T08:45:56.334Z,42.80
2022-09-02T08:48:34.652Z,41.90
2022-09-02T08:51:07.127Z,42.40
2022-09-02T08:53:38.367Z,40.70
2022-09-02T08:56:11.457Z,40.90
2022-09-02T08:58:45.256Z,38.00
2022-09-02T09:01:22.408Z,34.70
2022-09-02T09:04:17.809Z,35.00
2022-09-02T09:06:59.958Z,35.60
2022-09-02T09:09:37.801Z,35.60
2022-09-02T09:12:14.118Z,33.00
2022-09-02T09:14:48.709Z,33.90
2022-09-02T09:17:26.887Z,33.30
2022-09-02T09:20:00.722Z,32.70
2022-09-02T09:22:37.564Z,30.90
2022-09-02T09:25:11.698Z,29.50
2022-09-02T09:27:40.376Z,30.00
2022-09-02T09:30:15.445Z,29.30
2022-09-02T09:32:48.434Z,27.90
2022-09-02T09:35:18.949Z,28.80
2022-09-02T09:37:50.409Z,29.10
2022-09-02T09:40:27.941Z,29.60
2022-09-02T09:42:59.143Z,27.60
2022-09-02T09:45:33.764Z,28.00
2022-09-02T09:48:19.657Z,28.40
2022-09-02T09:50:50.207Z,27.60
2022-09-02T09:53:24.488Z,27.00
2022-09-02T09:55:55.867Z,27.60
2022-09-02T09:58:29.252Z,25.90
2022-09-02T10:01:00.865Z,26.90
2022-09-02T10:03:32.947Z,24.30
2022-09-02T10:06:19.558Z,25.60
2022-09-02T10:08:55.125Z,24.60
2022-09-02T10:11:26.763Z,28.10
2022-09-02T10:14:00.366Z,27.60
2022-09-02T10:16:52.395Z,26.10
2022-09-02T10:19:31.327Z,25.90
2022-09-02T10:22:37.895Z,26.40
2022-09-02T10:25:29.712Z,23.80
2022-09-02T10:28:06.339Z,24.10
2022-09-02T10:30:42.702Z,23.90
2022-09-02T10:33:28.117Z,24.00
2022-09-02T10:36:07.606Z,22.80
2022-09-02T10:38:42.567Z,22.90
2022-09-02T10:41:31.754Z,22.80
2022-09-02T10:44:18.466Z,24.80
2022-09-02T10:46:56.754Z,23.20
2022-09-02T10:49:37.666Z,25.00
2022-09-02T10:54:56.586Z,23.00
2022-09-02T10:57:31.677Z,23.70
2022-09-02T11:00:07.637Z,25.00
2022-09-02T11:02:43.367Z,21.70
2022-09-02T11:05:17.728Z,21.10
2022-09-02T11:07:52.817Z,22.00
2022-09-02T11:10:26.997Z,24.50
2022-09-02T11:13:03.506Z,22.70
2022-09-02T11:15:45.870Z,22.30
2022-09-02T11:18:26.676Z,22.30
2022-09-02T11:21:04.851Z,22.30
2022-09-02T11:23:43.056Z,24.50
2022-09-02T11:26:19.594Z,23.30
2022-09-02T11:28:57.860Z,22.20
2022-09-02T11:31:33.653Z,24.20
2022-09-02T11:34:08.693Z,21.80
2022-09-02T11:36:41.904Z,23.90
2022-09-02T11:39:21.701Z,22.60
2022-09-02T11:42:14.305Z,21.50
2022-09-02T11:45:02.916Z,21.70
2022-09-02T11:47:46.698Z,23.20
2022-09-02T11:50:54.216Z,24.60
2022-09-02T11:53:29.636Z,21.90
2022-09-02T11:56:03.116Z,23.40
2022-09-02T11:58:40.114Z,22.70
2022-09-02T12:01:25.909Z,23.90
2022-09-02T12:04:48.562Z,25.40
2022-09-02T12:07:21.067Z,22.30
2022-09-02T12:09:57.800Z,23.50
2022-09-02T12:13:09.860Z,23.90
2022-09-02T12:15:40.767Z,25.00
2022-09-02T12:18:15.458Z,23.40
2022-09-02T12:21:16.208Z,23.30
2022-09-02T12:24:09.711Z,24.30
2022-09-02T12:27:09.047Z,21.90
2022-09-02T12:29:39.753Z,23.70
2022-09-02T12:32:10.381Z,23.30
2022-09-02T12:34:55.117Z,24.80
2022-09-02T12:37:53.882Z,23.50
2022-09-02T12:40:34.100Z,22.30
2022-09-02T12:43:15.988Z,23.10
2022-09-02T12:45:45.233Z,23.10
2022-09-02T12:48:18.509Z,23.30
2022-09-02T12:51:05.119Z,23.90
2022-09-02T12:53:43.227Z,22.20
2022-09-02T12:56:23.299Z,23.20
2022-09-02T12:58:58.897Z,22.60
2022-09-02T13:01:42.679Z,22.10
2022-09-02T13:04:27.626Z,23.30
2022-09-02T13:07:48.496Z,23.70
2022-09-02T13:10:51.576Z,24.30
2022-09-02T13:13:58.836Z,26.00
2022-09-02T13:16:40.657Z,23.50
2022-09-02T13:19:46.942Z,24.30
2022-09-02T13:22:47.888Z,23.00
2022-09-02T13:25:47.367Z,23.50
2022-09-02T13:28:51.036Z,25.00
2022-09-02T13:31:23.632Z,24.90
2022-09-02T13:34:01.325Z,26.30
2022-09-02T13:36:37.157Z,26.70
2022-09-02T13:39:14.899Z,25.80
2022-09-02T13:41:43.627Z,25.20
2022-09-02T13:44:14.147Z,25.40
2022-09-02T13:46:50.697Z,23.70
2022-09-02T13:49:24.534Z,26.30
2022-09-02T13:51:56.635Z,24.90
2022-09-02T13:54:36.257Z,24.60
2022-09-02T13:57:08.081Z,24.80
2022-09-02T13:59:38.990Z,25.90
2022-09-02T14:02:27.094Z,28.10
2022-09-02T14:05:00.406Z,29.40
2022-09-02T14:07:33.788Z,29.90
2022-09-02T14:10:05.342Z,28.70
2022-09-02T14:12:36.539Z,28.70
2022-09-02T14:15:07.093Z,27.40
2022-09-02T14:17:36.477Z,28.40
2022-09-02T14:20:28.287Z,29.00
2022-09-02T14:22:58.137Z,28.60
2022-09-02T14:25:28.557Z,29.40
2022-09-02T14:27:58.488Z,29.70
2022-09-02T14:30:32.397Z,31.20
2022-09-02T14:33:20.613Z,33.90
2022-09-02T14:36:05.197Z,31.80
2022-09-02T14:38:37.429Z,33.10
2022-09-02T14:41:12.248Z,31.70
2022-09-02T14:43:47.149Z,31.10
2022-09-02T14:46:34.689Z,30.80
2022-09-02T14:49:06.391Z,32.70
2022-09-02T14:51:40.483Z,34.00
2022-09-02T14:54:10.095Z,32.50
2022-09-02T14:56:49.694Z,32.10
2022-09-02T14:59:18.707Z,31.10
2022-09-02T15:01:50.869Z,34.80
2022-09-02T15:04:20.803Z,34.00
2022-09-02T15:06:51.904Z,37.70
2022-09-02T15:09:20.537Z,39.10
2022-09-02T15:11:52.857Z,39.40
2022-09-02T15:14:21.809Z,36.40
2022-09-02T15:16:50.630Z,37.20
2022-09-02T15:19:19.656Z,35.80
2022-09-02T15:21:48.757Z,34.10
2022-09-02T15:24:19.655Z,35.90
2022-09-02T15:26:48.696Z,36.70
2022-09-02T15:29:19.417Z,31.70
2022-09-02T15:31:48.684Z,31.10
2022-09-02T15:34:17.959Z,32.60
2022-09-02T15:36:47.146Z,32.20
2022-09-02T15:39:17.363Z,31.20
2022-09-02T15:41:47.756Z,31.30
2022-09-02T15:44:16.997Z,32.50
2022-09-02T15:46:47.217Z,33.60
2022-09-02T15:49:17.459Z,33.60
2022-09-02T15:51:47.590Z,35.10
2022-09-02T15:54:18.376Z,36.60
2022-09-02T15:56:49.933Z,37.30
2022-09-02T15:59:21.945Z,39.00
2022-09-02T16:01:52.325Z,38.80
2022-09-02T16:04:20.997Z,39.80
2022-09-02T16:06:52.481Z,40.50
2022-09-02T16:09:21.948Z,40.60
2022-09-02T16:11:53.864Z,40.90
2022-09-02T16:14:24.187Z,40.50
2022-09-02T16:16:55.981Z,39.70
2022-09-02T16:19:28.744Z,40.70
2022-09-02T16:21:59.401Z,42.20
2022-09-02T16:24:31.952Z,42.40
2022-09-02T16:27:02.198Z,43.50
2022-09-02T16:29:33.128Z,43.90
2022-09-02T16:32:21.383Z,43.50
2022-09-02T16:34:51.267Z,45.20
2022-09-02T16:37:20.317Z,46.20
2022-09-02T16:39:49.369Z,46.80
2022-09-02T16:42:19.707Z,47.70
2022-09-02T16:44:53.908Z,47.50
2022-09-02T16:47:22.838Z,48.20
2022-09-02T16:49:52.023Z,49.20
2022-09-02T16:52:20.897Z,49.80
2022-09-02T16:54:50.098Z,50.00
2022-09-02T16:57:20.129Z,50.00
2022-09-02T16:59:49.897Z,50.60
2022-09-02T17:02:19.059Z,51.50
2022-09-02T17:04:47.912Z,53.50
2022-09-02T17:07:17.098Z,53.10
2022-09-02T17:09:46.479Z,52.50
2022-09-02T17:12:16.346Z,53.80
2022-09-02T17:14:47.455Z,53.90
2022-09-02T17:17:17.598Z,54.30
2022-09-02T17:19:47.129Z,54.90
2022-09-02T17:22:16.282Z,54.70
2022-09-02T17:24:45.257Z,55.70
2022-09-02T17:27:14.243Z,56.70
2022-09-02T17:29:51.364Z,56.30
2022-09-02T17:32:22.297Z,57.30
2022-09-02T17:34:51.574Z,57.30
2022-09-02T17:37:21.818Z,58.10
2022-09-02T17:39:51.110Z,58.80
2022-09-02T17:42:20.291Z,59.40
2022-09-02T17:44:49.878Z,59.70
2022-09-02T17:47:22.792Z,59.80
2022-09-02T17:49:51.902Z,60.50
2022-09-02T17:52:22.878Z,61.10
2022-09-02T17:54:53.558Z,61.80
2022-09-02T17:57:42.661Z,61.80
2022-09-02T18:00:14.768Z,62.90
2022-09-02T18:03:25.948Z,64.00
2022-09-02T18:06:10.499Z,64.00
2022-09-02T18:08:51.709Z,65.20
2022-09-02T18:11:22.627Z,65.70
2022-09-02T18:14:03.178Z,66.40
2022-09-02T18:16:37.022Z,66.60
2022-09-02T18:19:19.719Z,67.60
2022-09-02T18:22:06.538Z,68.80
2022-09-02T18:24:54.936Z,69.40
2022-09-02T18:27:31.807Z,70.50
2022-09-02T18:30:06.689Z,71.50
2022-09-02T18:32:55.712Z,72.60
2022-09-02T18:35:34.529Z,73.90
2022-09-02T18:38:11.898Z,76.80
2022-09-02T18:40:46.628Z,77.30
2022-09-02T18:43:23.518Z,78.60
2022-09-02T18:45:54.786Z,80.80
2022-09-02T18:48:28.475Z,82.50
2022-09-02T18:51:02.027Z,84.60
2022-09-02T18:53:35.229Z,86.10
2022-09-02T18:56:08.433Z,86.80
2022-09-02T18:58:43.826Z,86.50
2022-09-02T19:01:20.487Z,88.10
2022-09-02T19:03:49.777Z,90.10
2022-09-02T19:06:21.898Z,90.20
2022-09-02T19:08:54.928Z,92.30
2022-09-02T19:11:24.267Z,92.70
2022-09-02T19:13:56.416Z,93.30
2022-09-02T19:16:28.109Z,93.20
2022-09-02T19:18:56.998Z,94.30
2022-09-02T19:21:32.675Z,95.00
2022-09-02T19:24:02.168Z,95.20
2022-09-02T19:26:31.195Z,96.40
2022-09-02T19:29:00.378Z,97.50
2022-09-02T19:31:31.826Z,97.50
2022-09-02T19:34:04.925Z,98.40
2022-09-02T19:36:34.748Z,99.10
2022-09-02T19:39:03.474Z,99.50
2022-09-02T19:41:32.426Z,99.90
2022-09-02T19:44:01.168Z,99.90
2022-09-02T19:49:18.959Z,99.90
2022-09-02T19:51:49.559Z,99.90
2022-09-02T19:54:19.229Z,99.90
2022-09-02T19:56:48.217Z,99.90
2022-09-02T19:59:17.321Z,99.90
2022-09-02T20:01:46.542Z,99.90
2022-09-02T20:04:16.140Z,99.90
2022-09-02T20:06:44.938Z,99.90
2022-09-02T20:09:15.242Z,99.90
2022-09-02T20:11:46.277Z,99.90
2022-09-02T20:14:15.298Z,99.90
2022-09-02T20:16:44.824Z,99.90
2022-09-02T20:19:14.408Z,99.90
2022-09-02T20:21:46.351Z,99.90
2022-09-02T20:24:27.857Z,99.90
2022-09-02T20:27:05.669Z,99.90
2022-09-02T20:29:56.935Z,99.90
2022-09-02T20:32:37.283Z,99.90
2022-09-02T20:35:16.518Z,99.90
2022-09-02T20:37:55.091Z,99.90
2022-09-02T20:40:34.980Z,99.90
2022-09-02T20:43:28.495Z,99.90
2022-09-02T20:46:02.399Z,99.90
2022-09-02T20:48:50.652Z,99.90
2022-09-02T20:51:24.748Z,99.90
2022-09-02T20:54:09.423Z,99.90
2022-09-02T20:56:47.799Z,99.90
2022-09-02T20:59:26.695Z,99.90
2022-09-02T21:01:58.959Z,99.90
2022-09-02T21:04:38.458Z,99.90
2022-09-02T21:07:12.316Z,99.90
2022-09-02T21:09:50.818Z,99.90
2022-09-02T21:12:37.368Z,99.90
2022-09-02T21:15:10.900Z,99.90
2022-09-02T21:17:48.389Z,99.90
2022-09-02T21:20:21.767Z,99.90
2022-09-02T21:22:52.680Z,99.90
2022-09-02T21:25:26.705Z,99.90
2022-09-02T21:28:04.677Z,99.90
2022-09-02T21:30:40.035Z,99.90
2022-09-02T21:33:11.257Z,99.90
2022-09-02T21:35:42.465Z,99.90
2022-09-02T21:38:15.564Z,99.90
2022-09-02T21:40:55.295Z,99.90
2022-09-02T21:43:38.890Z,99.90
2022-09-02T21:46:17.186Z,99.90
2022-09-02T21:49:00.358Z,99.90
2022-09-02T21:51:36.187Z,99.90
2022-09-02T21:54:28.867Z,99.90
2022-09-02T21:57:09.377Z,99.90
2022-09-02T21:59:53.418Z,99.90
2022-09-02T22:02:29.653Z,99.90
2022-09-02T22:05:04.966Z,99.90
2022-09-02T22:07:39.249Z,99.90
2022-09-02T22:10:16.908Z,99.90
2022-09-02T22:12:52.405Z,99.90
2022-09-02T22:15:34.177Z,99.90
2022-09-02T22:18:11.059Z,99.90
2022-09-02T22:20:45.267Z,99.90
2022-09-02T22:23:26.349Z,99.90
2022-09-02T22:25:57.124Z,99.90
2022-09-02T22:28:32.658Z,99.90
2022-09-02T22:31:11.248Z,99.90
2022-09-02T22:33:48.078Z,99.90
2022-09-02T22:36:29.078Z,99.90
2022-09-02T22:39:01.439Z,99.90
2022-09-02T22:41:50.978Z,99.90
2022-09-02T22:44:51.402Z,99.90
2022-09-02T22:47:40.184Z,99.90
2022-09-02T22:50:30.598Z,99.90
2022-09-02T22:52:59.277Z,99.90
2022-09-02T22:55:59.508Z,99.90
2022-09-02T22:58:42.128Z,99.90
2022-09-02T23:01:19.344Z,99.90
2022-09-02T23:04:03.515Z,99.90
2022-09-02T23:06:33.420Z,99.90
2022-09-02T23:09:05.858Z,99.90
2022-09-02T23:11:43.507Z,99.90
2022-09-02T23:14:19.457Z,99.90
2022-09-02T23:17:20.342Z,99.90
2022-09-02T23:20:01.735Z,99.90
2022-09-02T23:22:42.245Z,99.90
2022-09-02T23:25:30.348Z,99.90
2022-09-02T23:28:11.426Z,99.90
2022-09-02T23:30:52.653Z,99.90
2022-09-02T23:33:34.059Z,98.80
2022-09-02T23:36:12.979Z,99.90
2022-09-02T23:39:02.539Z,99.90
2022-09-02T23:41:31.459Z,99.90
2022-09-02T23:44:00.226Z,99.90
2022-09-02T23:46:42.940Z,99.90
2022-09-02T23:49:23.028Z,99.90
2022-09-02T23:51:58.669Z,99.90
2022-09-02T23:54:50.623Z,99.90
2022-09-02T23:57:37.098Z,99.30
